createdAt,value
2019-05-29T00:00:07.817Z,1010.07
2019-05-29T00:01:12.141Z,1010.13
2019-05-29T00:02:07.928Z,1010.13
2019-05-29T00:03:08.292Z,1010.14
2019-05-29T00:04:08.103Z,1010.19
2019-05-29T00:05:07.974Z,1010.17
2019-05-29T00:06:08.109Z,1010.18
2019-05-29T00:07:08.021Z,1010.18
2019-05-29T00:08:08.265Z,1010.14
2019-05-29T00:09:08.110Z,1010.16
2019-05-29T00:10:08.763Z,1010.12
2019-05-29T00:11:08.031Z,1010.14
2019-05-29T00:12:08.705Z,1010.17
2019-05-29T00:13:08.174Z,1010.25
2019-05-29T00:14:20.391Z,1010.22
2019-05-29T00:15:08.321Z,1010.22
2019-05-29T00:16:08.283Z,1010.29
2019-05-29T00:17:08.331Z,1010.29
2019-05-29T00:18:08.321Z,1010.33
2019-05-29T00:19:08.681Z,1010.37
2019-05-29T00:20:08.311Z,1010.34
2019-05-29T00:21:08.219Z,1010.30
2019-05-29T00:22:08.190Z,1010.27
2019-05-29T00:23:08.354Z,1010.33
2019-05-29T00:24:08.257Z,1010.33
2019-05-29T00:25:08.432Z,1010.33
2019-05-29T00:26:08.269Z,1010.34
2019-05-29T00:27:07.434Z,1010.40
2019-05-29T00:28:07.213Z,1010.41
2019-05-29T00:29:07.529Z,1010.41
2019-05-29T00:30:07.207Z,1010.44
2019-05-29T00:31:07.739Z,1010.41
2019-05-29T00:32:07.189Z,1010.41
2019-05-29T00:33:07.962Z,1010.45
2019-05-29T00:34:07.182Z,1010.44
2019-05-29T00:35:08.246Z,1010.44
2019-05-29T00:36:08.225Z,1010.47
2019-05-29T00:37:08.402Z,1010.44
2019-05-29T00:38:08.419Z,1010.45
2019-05-29T00:39:07.148Z,1010.50
2019-05-29T00:40:07.139Z,1010.48
2019-05-29T00:41:07.128Z,1010.42
2019-05-29T00:42:07.128Z,1010.45
2019-05-29T00:43:07.422Z,1010.44
2019-05-29T00:44:07.118Z,1010.44
2019-05-29T00:45:07.332Z,1010.43
2019-05-29T00:46:07.346Z,1010.42
2019-05-29T00:47:07.441Z,1010.45
2019-05-29T00:48:07.734Z,1010.44
2019-05-29T00:49:07.715Z,1010.45
2019-05-29T00:50:07.993Z,1010.49
2019-05-29T00:51:07.071Z,1010.48
2019-05-29T00:52:08.090Z,1010.48
2019-05-29T00:53:08.059Z,1010.51
2019-05-29T00:54:08.202Z,1010.50
2019-05-29T00:55:08.274Z,1010.51
2019-05-29T00:56:07.072Z,1010.54
2019-05-29T00:57:07.063Z,1010.55
2019-05-29T00:58:07.040Z,1010.62
2019-05-29T00:59:07.019Z,1010.64
2019-05-29T01:00:07.023Z,1010.65
2019-05-29T01:01:07.003Z,1010.67
2019-05-29T01:02:06.996Z,1010.74
2019-05-29T01:03:06.991Z,1010.71
2019-05-29T01:04:06.989Z,1010.70
2019-05-29T01:05:06.979Z,1010.78
2019-05-29T01:06:06.973Z,1010.76
2019-05-29T01:07:06.970Z,1010.77
2019-05-29T01:08:06.968Z,1010.79
2019-05-29T01:09:06.959Z,1010.81
2019-05-29T01:10:06.955Z,1010.81
2019-05-29T01:11:06.950Z,1010.82
2019-05-29T01:12:06.947Z,1010.84
2019-05-29T01:13:06.933Z,1010.85
2019-05-29T01:14:06.921Z,1010.86
2019-05-29T01:15:06.926Z,1010.83
2019-05-29T01:16:06.933Z,1010.85
2019-05-29T01:17:06.931Z,1010.86
2019-05-29T01:18:06.907Z,1010.87
2019-05-29T01:19:06.900Z,1010.90
2019-05-29T01:20:06.927Z,1010.87
2019-05-29T01:21:06.908Z,1010.92
2019-05-29T01:22:06.874Z,1010.99
2019-05-29T01:23:06.874Z,1010.97
2019-05-29T01:24:06.873Z,1011.02
2019-05-29T01:25:06.857Z,1011.02
2019-05-29T01:26:06.850Z,1011.00
2019-05-29T01:27:06.852Z,1011.04
2019-05-29T01:28:06.865Z,1011.04
2019-05-29T01:29:06.842Z,1010.98
2019-05-29T01:30:06.833Z,1011.03
2019-05-29T01:31:06.829Z,1011.03
2019-05-29T01:32:06.835Z,1010.98
2019-05-29T01:33:06.810Z,1011.01
2019-05-29T01:34:06.801Z,1011.05
2019-05-29T01:35:06.799Z,1011.09
2019-05-29T01:36:06.785Z,1011.07
2019-05-29T01:37:06.784Z,1011.17
2019-05-29T01:38:06.781Z,1011.17
2019-05-29T01:39:06.772Z,1011.18
2019-05-29T01:40:19.354Z,1011.27
2019-05-29T01:41:06.788Z,1011.26
2019-05-29T01:42:06.749Z,1011.29
2019-05-29T01:43:06.741Z,1011.33
2019-05-29T01:44:06.736Z,1011.32
2019-05-29T01:45:08.490Z,1011.30
2019-05-29T01:46:06.733Z,1011.35
2019-05-29T01:47:06.720Z,1011.32
2019-05-29T01:48:06.714Z,1011.35
2019-05-29T01:49:06.708Z,1011.37
2019-05-29T01:50:06.703Z,1011.37
2019-05-29T01:51:06.703Z,1011.42
2019-05-29T01:52:06.686Z,1011.42
2019-05-29T01:53:06.679Z,1011.41
2019-05-29T01:54:06.678Z,1011.40
2019-05-29T01:55:06.735Z,1011.41
2019-05-29T01:56:06.664Z,1011.41
2019-05-29T01:57:06.660Z,1011.43
2019-05-29T01:58:06.654Z,1011.43
2019-05-29T01:59:06.658Z,1011.41
2019-05-29T02:00:06.658Z,1011.46
2019-05-29T02:01:06.631Z,1011.46
2019-05-29T02:02:06.625Z,1011.47
2019-05-29T02:03:06.632Z,1011.49
2019-05-29T02:04:06.619Z,1011.48
2019-05-29T02:05:06.615Z,1011.50
2019-05-29T02:06:06.613Z,1011.48
2019-05-29T02:07:06.597Z,1011.49
2019-05-29T02:08:06.586Z,1011.54
2019-05-29T02:09:06.580Z,1011.56
2019-05-29T02:10:06.576Z,1011.55
2019-05-29T02:11:06.583Z,1011.54
2019-05-29T02:12:06.573Z,1011.56
2019-05-29T02:13:06.562Z,1011.59
2019-05-29T02:14:06.575Z,1011.67
2019-05-29T02:15:22.672Z,1011.57
2019-05-29T02:16:06.543Z,1011.62
2019-05-29T02:17:06.527Z,1011.61
2019-05-29T02:18:06.528Z,1011.61
2019-05-29T02:19:06.519Z,1011.60
2019-05-29T02:20:06.515Z,1011.63
2019-05-29T02:21:06.514Z,1011.64
2019-05-29T02:22:06.499Z,1011.67
2019-05-29T02:23:06.491Z,1011.68
2019-05-29T02:24:06.503Z,1011.74
2019-05-29T02:25:06.489Z,1011.74
2019-05-29T02:26:06.474Z,1011.75
2019-05-29T02:27:06.466Z,1011.74
2019-05-29T02:28:06.465Z,1011.76
2019-05-29T02:29:06.460Z,1011.78
2019-05-29T02:30:06.458Z,1011.77
2019-05-29T02:31:06.460Z,1011.75
2019-05-29T02:32:06.439Z,1011.75
2019-05-29T02:33:06.431Z,1011.82
2019-05-29T02:34:07.489Z,1011.82
2019-05-29T02:35:06.415Z,1011.82
2019-05-29T02:36:06.417Z,1011.83
2019-05-29T02:37:06.417Z,1011.84
2019-05-29T02:38:06.408Z,1011.81
2019-05-29T02:39:06.397Z,1011.84
2019-05-29T02:40:06.400Z,1011.88
2019-05-29T02:41:06.384Z,1011.88
2019-05-29T02:42:06.383Z,1011.92
2019-05-29T02:43:06.376Z,1011.96
2019-05-29T02:44:06.417Z,1011.91
2019-05-29T02:45:06.411Z,1011.93
2019-05-29T02:46:06.350Z,1011.89
2019-05-29T02:47:06.344Z,1011.90
2019-05-29T02:48:06.338Z,1011.89
2019-05-29T02:49:06.330Z,1011.84
2019-05-29T02:50:06.322Z,1011.82
2019-05-29T02:51:06.322Z,1011.86
2019-05-29T02:52:06.308Z,1011.90
2019-05-29T02:53:06.316Z,1011.96
2019-05-29T02:54:06.296Z,1011.91
2019-05-29T02:55:06.294Z,1011.98
2019-05-29T02:56:06.283Z,1012.02
2019-05-29T02:57:06.284Z,1012.02
2019-05-29T02:58:06.273Z,1012.06
2019-05-29T02:59:06.271Z,1012.13
2019-05-29T03:00:06.258Z,1012.12
2019-05-29T03:01:06.267Z,1012.18
2019-05-29T03:02:06.244Z,1012.21
2019-05-29T03:03:06.249Z,1012.24
2019-05-29T03:04:06.269Z,1012.26
2019-05-29T03:05:06.239Z,1012.29
2019-05-29T03:06:06.226Z,1012.31
2019-05-29T03:07:06.222Z,1012.29
2019-05-29T03:08:06.221Z,1012.29
2019-05-29T03:09:06.206Z,1012.37
2019-05-29T03:10:06.216Z,1012.32
2019-05-29T03:11:06.231Z,1012.33
2019-05-29T03:12:06.218Z,1012.36
2019-05-29T03:13:06.183Z,1012.37
2019-05-29T03:14:06.173Z,1012.45
2019-05-29T03:15:06.177Z,1012.48
2019-05-29T03:16:11.253Z,1012.48
2019-05-29T03:17:06.160Z,1012.55
2019-05-29T03:18:06.150Z,1012.54
2019-05-29T03:19:06.145Z,1012.57
2019-05-29T03:20:06.148Z,1012.59
2019-05-29T03:21:06.139Z,1012.61
2019-05-29T03:22:06.123Z,1012.63
2019-05-29T03:23:06.121Z,1012.65
2019-05-29T03:24:06.109Z,1012.67
2019-05-29T03:25:06.112Z,1012.68
2019-05-29T03:26:06.137Z,1012.74
2019-05-29T03:27:06.097Z,1012.77
2019-05-29T03:28:06.092Z,1012.75
2019-05-29T03:29:06.084Z,1012.76
2019-05-29T03:30:06.072Z,1012.78
2019-05-29T03:31:06.070Z,1012.83
2019-05-29T03:32:13.129Z,1012.83
2019-05-29T03:33:06.054Z,1012.87
2019-05-29T03:34:06.080Z,1012.89
2019-05-29T03:35:06.048Z,1012.94
2019-05-29T03:36:06.070Z,1012.91
2019-05-29T03:37:06.026Z,1012.90
2019-05-29T03:38:06.021Z,1012.98
2019-05-29T03:39:06.016Z,1012.97
2019-05-29T03:40:06.014Z,1012.99
2019-05-29T03:41:05.998Z,1013.05
2019-05-29T03:42:05.992Z,1013.03
2019-05-29T03:43:05.995Z,1013.03
2019-05-29T03:44:10.083Z,1013.01
2019-05-29T03:45:05.980Z,1013.09
2019-05-29T03:46:06.014Z,1013.10
2019-05-29T03:47:05.965Z,1013.11
2019-05-29T03:48:06.048Z,1013.17
2019-05-29T03:49:05.950Z,1013.15
2019-05-29T03:50:05.948Z,1013.23
2019-05-29T03:51:05.978Z,1013.26
2019-05-29T03:52:05.934Z,1013.27
2019-05-29T03:53:05.931Z,1013.27
2019-05-29T03:54:05.927Z,1013.34
2019-05-29T03:55:05.909Z,1013.35
2019-05-29T03:56:05.912Z,1013.32
2019-05-29T03:57:05.898Z,1013.34
2019-05-29T03:58:05.897Z,1013.32
2019-05-29T03:59:05.906Z,1013.32
2019-05-29T04:00:05.877Z,1013.39
2019-05-29T04:01:05.880Z,1013.39
2019-05-29T04:02:05.879Z,1013.39
2019-05-29T04:03:05.872Z,1013.42
2019-05-29T04:04:05.859Z,1013.46
2019-05-29T04:05:05.859Z,1013.45
2019-05-29T04:06:05.847Z,1013.45
2019-05-29T04:07:05.888Z,1013.47
2019-05-29T04:08:05.826Z,1013.50
2019-05-29T04:09:05.866Z,1013.49
2019-05-29T04:10:05.833Z,1013.47
2019-05-29T04:11:05.821Z,1013.53
2019-05-29T04:12:05.805Z,1013.58
2019-05-29T04:13:05.795Z,1013.56
2019-05-29T04:14:05.788Z,1013.61
2019-05-29T04:15:05.805Z,1013.64
2019-05-29T04:16:05.777Z,1013.66
2019-05-29T04:17:05.792Z,1013.69
2019-05-29T04:18:05.777Z,1013.69
2019-05-29T04:19:05.765Z,1013.70
2019-05-29T04:20:05.765Z,1013.71
2019-05-29T04:21:05.752Z,1013.72
2019-05-29T04:22:05.775Z,1013.73
2019-05-29T04:23:05.745Z,1013.72
2019-05-29T04:24:05.737Z,1013.75
2019-05-29T04:25:05.726Z,1013.77
2019-05-29T04:26:05.733Z,1013.78
2019-05-29T04:27:05.714Z,1013.82
2019-05-29T04:28:05.702Z,1013.82
2019-05-29T04:29:05.694Z,1013.88
2019-05-29T04:30:05.696Z,1013.83
2019-05-29T04:31:05.694Z,1013.85
2019-05-29T04:32:05.675Z,1013.86
2019-05-29T04:33:05.667Z,1013.88
2019-05-29T04:34:05.664Z,1013.88
2019-05-29T04:35:05.659Z,1013.90
2019-05-29T04:36:05.652Z,1013.92
2019-05-29T04:37:07.441Z,1013.93
2019-05-29T04:38:05.705Z,1013.96
2019-05-29T04:39:05.643Z,1013.96
2019-05-29T04:40:05.627Z,1013.96
2019-05-29T04:41:05.621Z,1013.96
2019-05-29T04:42:05.620Z,1013.98
2019-05-29T04:43:05.611Z,1014.00
2019-05-29T04:44:05.600Z,1014.07
2019-05-29T04:45:05.602Z,1014.04
2019-05-29T04:46:05.596Z,1014.03
2019-05-29T04:47:11.160Z,1014.03
2019-05-29T04:48:05.582Z,1014.12
2019-05-29T04:49:05.570Z,1014.09
2019-05-29T04:50:05.564Z,1014.11
2019-05-29T04:51:05.569Z,1014.09
2019-05-29T04:52:05.553Z,1014.08
2019-05-29T04:53:05.552Z,1014.08
2019-05-29T04:54:05.554Z,1014.14
2019-05-29T04:55:05.540Z,1014.13
2019-05-29T04:56:05.530Z,1014.15
2019-05-29T04:57:05.521Z,1014.15
2019-05-29T04:58:05.527Z,1014.18
2019-05-29T04:59:05.508Z,1014.20
2019-05-29T05:00:05.524Z,1014.23
2019-05-29T05:01:05.499Z,1014.19
2019-05-29T05:02:05.508Z,1014.26
2019-05-29T05:03:05.495Z,1014.25
2019-05-29T05:04:05.488Z,1014.31
2019-05-29T05:05:05.472Z,1014.28
2019-05-29T05:06:05.473Z,1014.29
2019-05-29T05:07:05.467Z,1014.38
2019-05-29T05:08:05.463Z,1014.34
2019-05-29T05:09:05.446Z,1014.40
2019-05-29T05:10:05.455Z,1014.40
2019-05-29T05:11:05.441Z,1014.39
2019-05-29T05:12:05.436Z,1014.43
2019-05-29T05:13:05.474Z,1014.44
2019-05-29T05:14:05.510Z,1014.45
2019-05-29T05:15:05.419Z,1014.45
2019-05-29T05:16:05.412Z,1014.48
2019-05-29T05:17:05.407Z,1014.47
2019-05-29T05:18:05.397Z,1014.51
2019-05-29T05:19:05.396Z,1014.48
2019-05-29T05:20:05.388Z,1014.57
2019-05-29T05:21:05.383Z,1014.52
2019-05-29T05:22:05.382Z,1014.53
2019-05-29T05:23:05.368Z,1014.53
2019-05-29T05:24:05.369Z,1014.56
2019-05-29T05:25:05.357Z,1014.55
2019-05-29T05:26:05.357Z,1014.57
2019-05-29T05:27:05.343Z,1014.61
2019-05-29T05:28:05.336Z,1014.61
2019-05-29T05:29:05.401Z,1014.65
2019-05-29T05:30:08.594Z,1014.70
2019-05-29T05:31:07.277Z,1014.68
2019-05-29T05:32:05.321Z,1014.68
2019-05-29T05:33:05.313Z,1014.72
2019-05-29T05:34:05.326Z,1014.74
2019-05-29T05:35:05.296Z,1014.73
2019-05-29T05:36:05.338Z,1014.77
2019-05-29T05:37:05.283Z,1014.83
2019-05-29T05:38:05.283Z,1014.78
2019-05-29T05:39:05.282Z,1014.85
2019-05-29T05:40:05.267Z,1014.85
2019-05-29T05:41:05.267Z,1014.83
2019-05-29T05:42:05.265Z,1014.89
2019-05-29T05:43:05.261Z,1014.91
2019-05-29T05:44:05.246Z,1014.90
2019-05-29T05:45:05.244Z,1014.93
2019-05-29T05:46:05.234Z,1014.94
2019-05-29T05:47:05.226Z,1014.95
2019-05-29T05:48:05.229Z,1015.02
2019-05-29T05:49:05.221Z,1015.00
2019-05-29T05:50:05.201Z,1014.99
2019-05-29T05:51:05.196Z,1015.00
2019-05-29T05:52:05.191Z,1015.07
2019-05-29T05:53:05.186Z,1015.04
2019-05-29T05:54:05.231Z,1015.06
2019-05-29T05:55:05.176Z,1015.12
2019-05-29T05:56:05.170Z,1015.11
2019-05-29T05:57:05.215Z,1015.09
2019-05-29T05:58:05.158Z,1015.16
2019-05-29T05:59:05.159Z,1015.10
2019-05-29T06:00:05.146Z,1015.15
2019-05-29T06:01:05.140Z,1015.18
2019-05-29T06:02:05.130Z,1015.21
2019-05-29T06:03:05.131Z,1015.24
2019-05-29T06:04:05.123Z,1015.25
2019-05-29T06:05:05.134Z,1015.26
2019-05-29T06:06:05.124Z,1015.26
2019-05-29T06:07:05.105Z,1015.28
2019-05-29T06:08:05.099Z,1015.33
2019-05-29T06:09:05.100Z,1015.31
2019-05-29T06:10:05.108Z,1015.35
2019-05-29T06:11:05.078Z,1015.33
2019-05-29T06:12:05.087Z,1015.41
2019-05-29T06:13:05.065Z,1015.44
2019-05-29T06:14:05.064Z,1015.46
2019-05-29T06:15:05.060Z,1015.49
2019-05-29T06:16:05.054Z,1015.44
2019-05-29T06:17:05.050Z,1015.47
2019-05-29T06:18:20.510Z,1015.52
2019-05-29T06:19:05.039Z,1015.47
2019-05-29T06:20:05.036Z,1015.51
2019-05-29T06:21:05.021Z,1015.46
2019-05-29T06:22:05.017Z,1015.50
2019-05-29T06:23:05.004Z,1015.50
2019-05-29T06:24:05.004Z,1015.52
2019-05-29T06:25:05.003Z,1015.53
2019-05-29T06:26:04.984Z,1015.52
2019-05-29T06:27:04.999Z,1015.58
2019-05-29T06:28:04.973Z,1015.54
2019-05-29T06:29:04.993Z,1015.58
2019-05-29T06:30:04.967Z,1015.58
2019-05-29T06:31:04.954Z,1015.57
2019-05-29T06:32:04.958Z,1015.60
2019-05-29T06:33:04.953Z,1015.63
2019-05-29T06:34:04.961Z,1015.60
2019-05-29T06:35:04.948Z,1015.65
2019-05-29T06:36:04.934Z,1015.64
2019-05-29T06:37:04.926Z,1015.64
2019-05-29T06:38:04.931Z,1015.60
2019-05-29T06:39:04.916Z,1015.65
2019-05-29T06:40:04.919Z,1015.66
2019-05-29T06:41:04.907Z,1015.65
2019-05-29T06:42:04.895Z,1015.67
2019-05-29T06:43:04.900Z,1015.71
2019-05-29T06:44:04.878Z,1015.67
2019-05-29T06:45:05.164Z,1015.70
2019-05-29T06:46:04.874Z,1015.73
2019-05-29T06:47:04.863Z,1015.80
2019-05-29T06:48:04.866Z,1015.75
2019-05-29T06:49:04.849Z,1015.75
2019-05-29T06:50:04.838Z,1015.78
2019-05-29T06:51:04.902Z,1015.74
2019-05-29T06:52:04.824Z,1015.82
2019-05-29T06:53:04.837Z,1015.79
2019-05-29T06:54:04.823Z,1015.85
2019-05-29T06:55:04.810Z,1015.88
2019-05-29T06:56:04.847Z,1015.88
2019-05-29T06:57:04.797Z,1015.86
2019-05-29T06:58:04.793Z,1015.88
2019-05-29T06:59:04.786Z,1015.91
2019-05-29T07:00:04.780Z,1015.93
2019-05-29T07:01:04.777Z,1015.97
2019-05-29T07:02:04.769Z,1015.97
2019-05-29T07:03:04.762Z,1015.99
2019-05-29T07:04:11.742Z,1016.00
2019-05-29T07:05:04.761Z,1016.03
2019-05-29T07:06:04.815Z,1016.05
2019-05-29T07:07:04.737Z,1016.05
2019-05-29T07:08:18.039Z,1016.10
2019-05-29T07:09:04.728Z,1016.08
2019-05-29T07:10:04.722Z,1016.11
2019-05-29T07:11:04.719Z,1016.08
2019-05-29T07:12:04.703Z,1016.07
2019-05-29T07:13:04.699Z,1016.07
2019-05-29T07:14:04.699Z,1016.10
2019-05-29T07:15:04.687Z,1016.12
2019-05-29T07:16:04.726Z,1016.15
2019-05-29T07:17:04.680Z,1016.21
2019-05-29T07:18:04.668Z,1016.19
2019-05-29T07:20:04.684Z,1016.21
2019-05-29T07:21:04.666Z,1016.20
2019-05-29T07:22:04.637Z,1016.21
2019-05-29T07:23:04.637Z,1016.22
2019-05-29T07:24:04.636Z,1016.19
2019-05-29T07:25:04.635Z,1016.28
2019-05-29T07:26:04.619Z,1016.28
2019-05-29T07:27:04.620Z,1016.24
2019-05-29T07:28:04.614Z,1016.25
2019-05-29T07:29:08.256Z,1016.26
2019-05-29T07:30:04.590Z,1016.20
2019-05-29T07:31:04.588Z,1016.24
2019-05-29T07:32:04.584Z,1016.25
2019-05-29T07:33:04.570Z,1016.29
2019-05-29T07:34:04.577Z,1016.30
2019-05-29T07:35:04.751Z,1016.30
2019-05-29T07:36:04.556Z,1016.37
2019-05-29T07:37:04.594Z,1016.36
2019-05-29T07:38:04.550Z,1016.37
2019-05-29T07:39:04.533Z,1016.39
2019-05-29T07:40:04.532Z,1016.41
2019-05-29T07:41:04.532Z,1016.43
2019-05-29T07:42:04.524Z,1016.49
2019-05-29T07:43:04.532Z,1016.46
2019-05-29T07:44:04.506Z,1016.47
2019-05-29T07:45:04.503Z,1016.47
2019-05-29T07:46:04.538Z,1016.51
2019-05-29T07:47:04.485Z,1016.48
2019-05-29T07:48:04.494Z,1016.49
2019-05-29T07:49:04.470Z,1016.55
2019-05-29T07:50:04.474Z,1016.51
2019-05-29T07:51:07.304Z,1016.57
2019-05-29T07:52:04.460Z,1016.56
2019-05-29T07:53:04.450Z,1016.52
2019-05-29T07:54:04.450Z,1016.55
2019-05-29T07:55:04.509Z,1016.56
2019-05-29T07:56:04.430Z,1016.59
2019-05-29T07:57:04.425Z,1016.61
2019-05-29T07:58:04.418Z,1016.64
2019-05-29T07:59:04.429Z,1016.62
2019-05-29T08:00:04.411Z,1016.64
2019-05-29T08:01:12.641Z,1016.63
2019-05-29T08:02:04.405Z,1016.62
2019-05-29T08:03:04.394Z,1016.59
2019-05-29T08:04:04.386Z,1016.58
2019-05-29T08:05:04.382Z,1016.63
2019-05-29T08:06:04.375Z,1016.64
2019-05-29T08:07:04.374Z,1016.67
2019-05-29T08:08:04.377Z,1016.68
2019-05-29T08:09:04.351Z,1016.69
2019-05-29T08:10:04.349Z,1016.65
2019-05-29T08:11:04.347Z,1016.66
2019-05-29T08:12:04.340Z,1016.60
2019-05-29T08:13:04.337Z,1016.65
2019-05-29T08:14:04.324Z,1016.71
2019-05-29T08:15:04.332Z,1016.63
2019-05-29T08:16:04.335Z,1016.71
2019-05-29T08:17:04.307Z,1016.71
2019-05-29T08:18:04.304Z,1016.80
2019-05-29T08:19:07.873Z,1016.75
2019-05-29T08:20:07.647Z,1016.73
2019-05-29T08:21:05.870Z,1016.71
2019-05-29T08:22:04.275Z,1016.74
2019-05-29T08:23:04.287Z,1016.80
2019-05-29T08:24:04.265Z,1016.75
2019-05-29T08:25:04.257Z,1016.80
2019-05-29T08:26:04.255Z,1016.79
2019-05-29T08:27:04.246Z,1016.79
2019-05-29T08:28:04.245Z,1016.81
2019-05-29T08:29:04.238Z,1016.82
2019-05-29T08:30:04.241Z,1016.82
2019-05-29T08:31:04.231Z,1016.81
2019-05-29T08:32:04.217Z,1016.82
2019-05-29T08:33:04.210Z,1016.80
2019-05-29T08:34:04.207Z,1016.81
2019-05-29T08:35:04.207Z,1016.88
2019-05-29T08:36:04.202Z,1016.92
2019-05-29T08:37:07.316Z,1016.90
2019-05-29T08:38:04.180Z,1016.88
2019-05-29T08:39:04.183Z,1016.88
2019-05-29T08:40:04.171Z,1016.87
2019-05-29T08:41:05.962Z,1016.86
2019-05-29T08:42:22.012Z,1016.86
2019-05-29T08:43:04.152Z,1016.95
2019-05-29T08:44:04.157Z,1016.90
2019-05-29T08:45:04.143Z,1016.95
2019-05-29T08:46:04.132Z,1017.02
2019-05-29T08:47:10.007Z,1017.00
2019-05-29T08:48:04.145Z,1016.95
2019-05-29T08:49:04.162Z,1017.04
2019-05-29T08:50:17.610Z,1017.03
2019-05-29T08:51:04.110Z,1017.05
2019-05-29T08:52:11.693Z,1017.04
2019-05-29T08:53:04.090Z,1017.04
2019-05-29T08:54:21.053Z,1017.08
2019-05-29T08:55:04.086Z,1017.06
2019-05-29T08:56:04.075Z,1017.02
2019-05-29T08:57:04.096Z,1017.01
2019-05-29T08:58:04.067Z,1017.07
2019-05-29T08:59:04.063Z,1017.06
2019-05-29T09:00:04.060Z,1017.05
2019-05-29T09:01:04.046Z,1017.07
2019-05-29T09:02:04.042Z,1017.10
2019-05-29T09:03:04.039Z,1017.08
2019-05-29T09:04:04.031Z,1017.13
2019-05-29T09:05:04.104Z,1017.16
2019-05-29T09:06:08.950Z,1017.12
2019-05-29T09:07:04.027Z,1017.13
2019-05-29T09:08:04.008Z,1017.10
2019-05-29T09:09:04.021Z,1017.13
2019-05-29T09:10:03.995Z,1017.21
2019-05-29T09:11:04.005Z,1017.20
2019-05-29T09:12:03.983Z,1017.21
2019-05-29T09:13:05.282Z,1017.20
2019-05-29T09:14:03.972Z,1017.26
2019-05-29T09:15:04.019Z,1017.23
2019-05-29T09:16:03.967Z,1017.29
2019-05-29T09:17:03.979Z,1017.27
2019-05-29T09:18:03.945Z,1017.29
2019-05-29T09:19:03.949Z,1017.33
2019-05-29T09:20:03.942Z,1017.24
2019-05-29T09:21:04.553Z,1017.21
2019-05-29T09:22:03.921Z,1017.21
2019-05-29T09:23:03.924Z,1017.22
2019-05-29T09:24:03.922Z,1017.23
2019-05-29T09:25:03.912Z,1017.20
2019-05-29T09:26:14.027Z,1017.17
2019-05-29T09:27:03.901Z,1017.16
2019-05-29T09:28:03.896Z,1017.23
2019-05-29T09:29:03.888Z,1017.31
2019-05-29T09:30:03.890Z,1017.29
2019-05-29T09:31:03.874Z,1017.25
2019-05-29T09:32:03.873Z,1017.31
2019-05-29T09:33:03.865Z,1017.27
2019-05-29T09:34:03.871Z,1017.29
2019-05-29T09:35:03.883Z,1017.27
2019-05-29T09:36:03.849Z,1017.35
2019-05-29T09:37:03.857Z,1017.35
2019-05-29T09:38:03.870Z,1017.36
2019-05-29T09:39:03.830Z,1017.40
2019-05-29T09:40:03.829Z,1017.36
2019-05-29T09:41:03.817Z,1017.37
2019-05-29T09:42:03.814Z,1017.37
2019-05-29T09:43:03.823Z,1017.31
2019-05-29T09:44:03.836Z,1017.36
2019-05-29T09:45:03.791Z,1017.38
2019-05-29T09:46:03.811Z,1017.34
2019-05-29T09:47:03.791Z,1017.35
2019-05-29T09:48:03.811Z,1017.35
2019-05-29T09:49:03.770Z,1017.30
2019-05-29T09:50:03.809Z,1017.36
2019-05-29T09:51:20.293Z,1017.37
2019-05-29T09:52:04.142Z,1017.34
2019-05-29T09:53:04.175Z,1017.38
2019-05-29T09:54:03.803Z,1017.42
2019-05-29T09:55:03.785Z,1017.43
2019-05-29T09:56:03.736Z,1017.42
2019-05-29T09:57:03.759Z,1017.39
2019-05-29T09:58:03.728Z,1017.45
2019-05-29T09:59:03.999Z,1017.47
2019-05-29T10:00:04.285Z,1017.43
2019-05-29T10:01:18.379Z,1017.51
2019-05-29T10:02:08.201Z,1017.51
2019-05-29T10:03:03.925Z,1017.59
2019-05-29T10:04:06.089Z,1017.57
2019-05-29T10:05:04.192Z,1017.56
2019-05-29T10:06:04.289Z,1017.59
2019-05-29T10:07:04.797Z,1017.54
2019-05-29T10:08:04.373Z,1017.56
2019-05-29T10:09:03.813Z,1017.54
2019-05-29T10:10:05.171Z,1017.58
2019-05-29T10:11:08.829Z,1017.60
2019-05-29T10:12:06.707Z,1017.61
2019-05-29T10:13:04.518Z,1017.67
2019-05-29T10:14:05.085Z,1017.64
2019-05-29T10:15:04.408Z,1017.66
2019-05-29T10:16:04.708Z,1017.64
2019-05-29T10:17:09.258Z,1017.65
2019-05-29T10:18:07.392Z,1017.61
2019-05-29T10:19:04.868Z,1017.57
2019-05-29T10:20:04.998Z,1017.59
2019-05-29T10:21:03.584Z,1017.60
2019-05-29T10:22:04.020Z,1017.62
2019-05-29T10:23:03.576Z,1017.60
2019-05-29T10:24:04.194Z,1017.65
2019-05-29T10:25:05.850Z,1017.60
2019-05-29T10:26:05.053Z,1017.66
2019-05-29T10:27:05.260Z,1017.62
2019-05-29T10:28:05.920Z,1017.66
2019-05-29T10:29:08.683Z,1017.64
2019-05-29T10:30:03.533Z,1017.63
2019-05-29T10:31:04.769Z,1017.61
2019-05-29T10:32:03.527Z,1017.64
2019-05-29T10:33:03.518Z,1017.59
2019-05-29T10:34:03.508Z,1017.64
2019-05-29T10:35:03.506Z,1017.70
2019-05-29T10:36:04.322Z,1017.69
2019-05-29T10:37:03.495Z,1017.67
2019-05-29T10:38:03.487Z,1017.71
2019-05-29T10:39:03.486Z,1017.65
2019-05-29T10:40:03.476Z,1017.67
2019-05-29T10:41:06.736Z,1017.68
2019-05-29T10:42:03.467Z,1017.72
2019-05-29T10:43:03.481Z,1017.70
2019-05-29T10:44:03.464Z,1017.70
2019-05-29T10:45:03.452Z,1017.70
2019-05-29T10:46:03.459Z,1017.72
2019-05-29T10:47:03.448Z,1017.67
2019-05-29T10:48:03.431Z,1017.70
2019-05-29T10:49:04.787Z,1017.66
2019-05-29T10:50:03.464Z,1017.67
2019-05-29T10:51:03.414Z,1017.68
2019-05-29T10:52:14.851Z,1017.68
2019-05-29T10:53:03.407Z,1017.68
2019-05-29T10:54:03.405Z,1017.71
2019-05-29T10:55:03.392Z,1017.67
2019-05-29T10:56:03.386Z,1017.68
2019-05-29T10:57:03.386Z,1017.69
2019-05-29T10:58:03.378Z,1017.75
2019-05-29T10:59:03.373Z,1017.79
2019-05-29T11:00:03.364Z,1017.86
2019-05-29T11:01:03.387Z,1017.79
2019-05-29T11:02:03.353Z,1017.79
2019-05-29T11:03:03.349Z,1017.71
2019-05-29T11:04:03.359Z,1017.75
2019-05-29T11:05:03.343Z,1017.75
2019-05-29T11:06:03.333Z,1017.71
2019-05-29T11:07:03.353Z,1017.70
2019-05-29T11:08:03.329Z,1017.73
2019-05-29T11:09:03.316Z,1017.71
2019-05-29T11:10:03.307Z,1017.74
2019-05-29T11:11:03.301Z,1017.69
2019-05-29T11:12:03.296Z,1017.72
2019-05-29T11:13:03.289Z,1017.70
2019-05-29T11:14:03.301Z,1017.77
2019-05-29T11:15:19.892Z,1017.80
2019-05-29T11:16:03.275Z,1017.78
2019-05-29T11:17:03.271Z,1017.80
2019-05-29T11:18:03.265Z,1017.75
2019-05-29T11:19:03.313Z,1017.77
2019-05-29T11:20:03.265Z,1017.76
2019-05-29T11:21:03.257Z,1017.77
2019-05-29T11:22:24.832Z,1017.74
2019-05-29T11:23:03.234Z,1017.73
2019-05-29T11:24:03.248Z,1017.72
2019-05-29T11:25:20.960Z,1017.71
2019-05-29T11:26:03.212Z,1017.74
2019-05-29T11:27:03.208Z,1017.73
2019-05-29T11:28:03.210Z,1017.68
2019-05-29T11:29:03.194Z,1017.65
2019-05-29T11:30:03.207Z,1017.73
2019-05-29T11:31:06.239Z,1017.71
2019-05-29T11:32:03.184Z,1017.73
2019-05-29T11:33:03.173Z,1017.72
2019-05-29T11:34:03.172Z,1017.75
2019-05-29T11:35:03.164Z,1017.71
2019-05-29T11:36:12.286Z,1017.71
2019-05-29T11:37:03.154Z,1017.67
2019-05-29T11:38:03.152Z,1017.67
2019-05-29T11:39:06.269Z,1017.67
2019-05-29T11:40:03.411Z,1017.63
2019-05-29T11:41:23.606Z,1017.64
2019-05-29T11:42:03.245Z,1017.69
2019-05-29T11:43:03.304Z,1017.76
2019-05-29T11:44:03.273Z,1017.76
2019-05-29T11:45:03.786Z,1017.80
2019-05-29T11:46:03.100Z,1017.77
2019-05-29T11:47:03.108Z,1017.72
2019-05-29T11:48:05.161Z,1017.77
2019-05-29T11:49:03.607Z,1017.72
2019-05-29T11:50:16.343Z,1017.75
2019-05-29T11:51:03.078Z,1017.70
2019-05-29T11:52:22.652Z,1017.75
2019-05-29T11:53:03.062Z,1017.74
2019-05-29T11:54:03.058Z,1017.79
2019-05-29T11:55:04.660Z,1017.82
2019-05-29T11:56:03.046Z,1017.75
2019-05-29T11:57:03.320Z,1017.77
2019-05-29T11:58:03.049Z,1017.74
2019-05-29T11:59:03.236Z,1017.76
2019-05-29T12:00:15.238Z,1017.73
2019-05-29T12:01:03.017Z,1017.73
2019-05-29T12:02:03.519Z,1017.70
2019-05-29T12:03:03.005Z,1017.74
2019-05-29T12:04:22.629Z,1017.71
2019-05-29T12:05:03.921Z,1017.69
2019-05-29T12:06:03.353Z,1017.70